createdAt,value
2018-12-16T00:00:09.935Z,22.32
2018-12-16T00:01:09.908Z,22.12
2018-12-16T00:02:09.917Z,22.12
2018-12-16T00:03:09.905Z,22.22
2018-12-16T00:04:09.892Z,22.32
2018-12-16T00:05:09.881Z,22.32
2018-12-16T00:06:09.845Z,22.63
2018-12-16T00:07:09.860Z,22.52
2018-12-16T00:08:09.903Z,22.32
2018-12-16T00:09:09.825Z,22.22
2018-12-16T00:10:09.802Z,22.12
2018-12-16T00:11:09.814Z,22.12
2018-12-16T00:12:09.812Z,22.32
2018-12-16T00:13:09.768Z,22.12
2018-12-16T00:14:09.766Z,21.92
2018-12-16T00:15:09.752Z,21.82
2018-12-16T00:16:09.748Z,22.02
2018-12-16T00:17:09.809Z,22.02
2018-12-16T00:18:09.716Z,22.32
2018-12-16T00:19:09.751Z,22.02
2018-12-16T00:20:09.700Z,22.12
2018-12-16T00:21:09.690Z,22.12
2018-12-16T00:22:09.699Z,22.21
2018-12-16T00:23:09.706Z,22.22
2018-12-16T00:24:09.766Z,22.61
2018-12-16T00:25:09.649Z,22.41
2018-12-16T00:26:09.630Z,22.01
2018-12-16T00:27:09.624Z,22.01
2018-12-16T00:28:09.631Z,22.01
2018-12-16T00:29:09.588Z,22.01
2018-12-16T00:30:09.675Z,21.71
2018-12-16T00:31:09.581Z,21.71
2018-12-16T00:32:09.570Z,22.21
2018-12-16T00:33:09.580Z,22.22
2018-12-16T00:34:09.606Z,21.31
2018-12-16T00:35:09.524Z,21.41
2018-12-16T00:36:09.530Z,22.21
2018-12-16T00:37:09.542Z,22.32
2018-12-16T00:38:09.537Z,21.61
2018-12-16T00:39:09.476Z,22.12
2018-12-16T00:40:09.506Z,22.31
2018-12-16T00:41:09.507Z,22.11
2018-12-16T00:42:09.473Z,22.52
2018-12-16T00:43:09.439Z,22.22
2018-12-16T00:44:09.423Z,22.32
2018-12-16T00:45:09.424Z,22.12
2018-12-16T00:46:09.437Z,22.22
2018-12-16T00:47:09.403Z,22.63
2018-12-16T00:48:09.394Z,22.22
2018-12-16T00:49:09.412Z,22.22
2018-12-16T00:50:09.363Z,22.32
2018-12-16T00:51:09.340Z,22.32
2018-12-16T00:52:09.331Z,22.32
2018-12-16T00:53:09.334Z,22.12
2018-12-16T00:54:09.365Z,22.02
2018-12-16T00:55:09.309Z,21.72
2018-12-16T00:56:09.325Z,22.22
2018-12-16T00:57:09.280Z,22.02
2018-12-16T00:58:09.284Z,21.72
2018-12-16T00:59:09.256Z,21.82
2018-12-16T01:00:09.242Z,22.32
2018-12-16T01:01:09.234Z,22.02
2018-12-16T01:02:09.228Z,22.22
2018-12-16T01:03:09.240Z,22.52
2018-12-16T01:04:09.195Z,22.02
2018-12-16T01:05:09.182Z,22.02
2018-12-16T01:06:09.198Z,22.12
2018-12-16T01:07:09.213Z,22.22
2018-12-16T01:08:09.176Z,22.32
2018-12-16T01:09:09.156Z,21.72
2018-12-16T01:10:09.124Z,21.82
2018-12-16T01:11:09.118Z,22.12
2018-12-16T01:12:09.130Z,22.52
2018-12-16T01:13:09.117Z,22.61
2018-12-16T01:14:09.105Z,22.31
2018-12-16T01:15:09.067Z,22.11
2018-12-16T01:16:09.086Z,22.52
2018-12-16T01:17:09.072Z,22.41
2018-12-16T01:18:09.054Z,22.21
2018-12-16T01:19:09.037Z,22.41
2018-12-16T01:20:09.028Z,21.71
2018-12-16T01:21:09.024Z,22.31
2018-12-16T01:22:08.991Z,21.91
2018-12-16T01:23:08.993Z,22.31
2018-12-16T01:24:08.986Z,21.41
2018-12-16T01:25:08.964Z,21.51
2018-12-16T01:26:08.945Z,21.72
2018-12-16T01:27:08.968Z,21.72
2018-12-16T01:28:08.959Z,21.62
2018-12-16T01:29:08.910Z,22.52
2018-12-16T01:30:08.928Z,22.52
2018-12-16T01:31:08.898Z,22.32
2018-12-16T01:32:08.888Z,21.72
2018-12-16T01:33:08.877Z,22.42
2018-12-16T01:34:08.872Z,22.22
2018-12-16T01:35:08.846Z,22.22
2018-12-16T01:36:08.838Z,22.22
2018-12-16T01:37:08.821Z,22.32
2018-12-16T01:38:08.926Z,22.42
2018-12-16T01:39:08.813Z,22.22
2018-12-16T01:40:08.806Z,21.42
2018-12-16T01:41:08.789Z,21.42
2018-12-16T01:42:08.840Z,21.42
2018-12-16T01:43:08.761Z,21.62
2018-12-16T01:44:08.757Z,22.02
2018-12-16T01:45:08.734Z,22.52
2018-12-16T01:46:08.722Z,22.42
2018-12-16T01:47:08.719Z,22.02
2018-12-16T01:48:08.696Z,22.42
2018-12-16T01:49:08.726Z,22.02
2018-12-16T01:50:08.692Z,21.72
2018-12-16T01:51:08.741Z,22.22
2018-12-16T01:52:08.664Z,22.63
2018-12-16T01:53:08.662Z,22.52
2018-12-16T01:54:08.711Z,22.42
2018-12-16T01:55:08.623Z,22.32
2018-12-16T01:56:08.690Z,22.42
2018-12-16T01:57:08.633Z,22.02
2018-12-16T01:58:08.586Z,21.92
2018-12-16T01:59:08.596Z,22.12
2018-12-16T02:00:08.570Z,22.12
2018-12-16T02:01:08.574Z,22.02
2018-12-16T02:02:08.538Z,22.32
2018-12-16T02:03:08.531Z,22.12
2018-12-16T02:04:08.533Z,21.72
2018-12-16T02:05:08.508Z,22.02
2018-12-16T02:06:08.490Z,22.22
2018-12-16T02:07:08.510Z,22.61
2018-12-16T02:08:08.573Z,22.42
2018-12-16T02:09:08.569Z,21.31
2018-12-16T02:10:08.466Z,21.41
2018-12-16T02:11:08.433Z,22.31
2018-12-16T02:12:08.464Z,22.31
2018-12-16T02:13:08.431Z,22.41
2018-12-16T02:14:08.424Z,21.81
2018-12-16T02:15:08.413Z,22.01
2018-12-16T02:16:08.393Z,22.21
2018-12-16T02:17:08.378Z,22.11
2018-12-16T02:18:08.361Z,22.11
2018-12-16T02:19:08.420Z,22.12
2018-12-16T02:20:08.376Z,22.63
2018-12-16T02:21:08.332Z,22.32
2018-12-16T02:22:08.313Z,22.42
2018-12-16T02:23:08.309Z,22.52
2018-12-16T02:24:08.359Z,22.52
2018-12-16T02:25:08.299Z,22.22
2018-12-16T02:26:08.288Z,21.51
2018-12-16T02:27:08.303Z,22.02
2018-12-16T02:28:08.272Z,22.12
2018-12-16T02:29:08.256Z,21.72
2018-12-16T02:30:08.238Z,21.62
2018-12-16T02:31:08.213Z,21.82
2018-12-16T02:32:08.252Z,22.42
2018-12-16T02:33:08.193Z,22.22
2018-12-16T02:34:08.180Z,22.22
2018-12-16T02:35:08.179Z,22.32
2018-12-16T02:36:08.164Z,22.32
2018-12-16T02:37:08.141Z,22.32
2018-12-16T02:38:08.139Z,22.12
2018-12-16T02:39:08.127Z,22.22
2018-12-16T02:40:08.138Z,22.12
2018-12-16T02:41:08.096Z,22.32
2018-12-16T02:42:08.099Z,22.02
2018-12-16T02:43:08.079Z,22.22
2018-12-16T02:44:08.060Z,22.22
2018-12-16T02:45:08.079Z,21.62
2018-12-16T02:46:08.041Z,22.01
2018-12-16T02:47:08.049Z,22.02
2018-12-16T02:48:08.017Z,22.12
2018-12-16T02:49:08.004Z,21.92
2018-12-16T02:50:08.014Z,22.12
2018-12-16T02:51:07.993Z,22.02
2018-12-16T02:52:08.009Z,22.32
2018-12-16T02:53:07.970Z,22.12
2018-12-16T02:54:07.972Z,22.02
2018-12-16T02:55:07.966Z,21.92
2018-12-16T02:56:07.936Z,22.42
2018-12-16T02:57:07.983Z,22.12
2018-12-16T02:58:07.912Z,22.52
2018-12-16T02:59:07.931Z,22.12
2018-12-16T03:00:07.916Z,22.22
2018-12-16T03:01:07.889Z,22.22
2018-12-16T03:02:07.864Z,22.22
2018-12-16T03:03:07.863Z,22.02
2018-12-16T03:04:07.858Z,21.82
2018-12-16T03:05:07.835Z,22.02
2018-12-16T03:06:07.814Z,22.02
2018-12-16T03:07:07.810Z,22.22
2018-12-16T03:08:07.841Z,22.12
2018-12-16T03:09:07.792Z,22.12
2018-12-16T03:10:07.785Z,22.22
2018-12-16T03:11:07.777Z,22.32
2018-12-16T03:12:07.757Z,22.12
2018-12-16T03:13:07.739Z,22.22
2018-12-16T03:14:07.725Z,22.42
2018-12-16T03:15:07.758Z,22.22
2018-12-16T03:16:07.750Z,21.82
2018-12-16T03:17:07.716Z,22.22
2018-12-16T03:18:07.822Z,22.02
2018-12-16T03:19:07.681Z,22.22
2018-12-16T03:20:07.750Z,21.92
2018-12-16T03:21:07.709Z,22.22
2018-12-16T03:22:07.695Z,22.83
2018-12-16T03:23:12.341Z,22.83
2018-12-16T03:24:08.630Z,22.02
2018-12-16T03:25:07.676Z,21.92
2018-12-16T03:26:07.600Z,22.22
2018-12-16T03:27:07.582Z,22.02
2018-12-16T03:28:07.591Z,21.92
2018-12-16T03:29:07.560Z,22.02
2018-12-16T03:30:07.566Z,22.63
2018-12-16T03:31:07.549Z,22.63
2018-12-16T03:32:07.537Z,22.83
2018-12-16T03:33:07.509Z,23.23
2018-12-16T03:34:07.515Z,23.11
2018-12-16T03:35:07.494Z,22.72
2018-12-16T03:36:07.474Z,22.83
2018-12-16T03:37:07.478Z,22.63
2018-12-16T03:38:07.493Z,23.13
2018-12-16T03:39:07.458Z,22.83
2018-12-16T03:40:07.440Z,22.72
2018-12-16T03:41:07.416Z,22.92
2018-12-16T03:42:07.413Z,22.92
2018-12-16T03:43:07.408Z,23.13
2018-12-16T03:44:07.404Z,23.03
2018-12-16T03:45:07.389Z,23.23
2018-12-16T03:46:07.366Z,23.33
2018-12-16T03:47:07.391Z,22.83
2018-12-16T03:48:07.358Z,23.33
2018-12-16T03:49:07.352Z,23.13
2018-12-16T03:50:07.328Z,23.13
2018-12-16T03:51:07.310Z,23.13
2018-12-16T03:52:07.362Z,23.13
2018-12-16T03:53:07.325Z,23.23
2018-12-16T03:54:07.305Z,22.92
2018-12-16T03:55:07.316Z,22.63
2018-12-16T03:56:07.284Z,22.92
2018-12-16T03:57:07.265Z,22.52
2018-12-16T03:58:07.282Z,23.13
2018-12-16T03:59:07.254Z,23.22
2018-12-16T04:00:07.278Z,23.11
2018-12-16T04:01:07.205Z,22.81
2018-12-16T04:02:07.182Z,23.13
2018-12-16T04:03:07.188Z,23.33
2018-12-16T04:04:07.163Z,23.03
2018-12-16T04:05:07.242Z,23.33
2018-12-16T04:06:07.144Z,23.53
2018-12-16T04:07:07.121Z,23.53
2018-12-16T04:08:07.216Z,23.53
2018-12-16T04:09:07.106Z,23.03
2018-12-16T04:10:07.128Z,23.13
2018-12-16T04:11:07.143Z,23.03
2018-12-16T04:12:07.073Z,23.33
2018-12-16T04:13:07.081Z,22.63
2018-12-16T04:14:07.078Z,22.63
2018-12-16T04:15:07.045Z,22.63
2018-12-16T04:16:07.041Z,22.83
2018-12-16T04:17:07.041Z,22.83
2018-12-16T04:18:07.012Z,22.83
2018-12-16T04:19:06.996Z,22.83
2018-12-16T04:20:06.980Z,23.13
2018-12-16T04:21:06.982Z,23.43
2018-12-16T04:22:06.993Z,23.43
2018-12-16T04:23:07.012Z,23.13
2018-12-16T04:24:06.956Z,23.33
2018-12-16T04:25:06.926Z,22.92
2018-12-16T04:26:06.937Z,22.92
2018-12-16T04:27:06.909Z,22.92
2018-12-16T04:28:06.886Z,23.13
2018-12-16T04:29:06.906Z,23.43
2018-12-16T04:30:06.885Z,23.13
2018-12-16T04:31:06.866Z,23.03
2018-12-16T04:32:06.853Z,23.33
2018-12-16T04:33:06.843Z,23.23
2018-12-16T04:34:06.831Z,23.13
2018-12-16T04:35:06.826Z,22.92
2018-12-16T04:36:06.812Z,22.92
2018-12-16T04:37:06.805Z,23.13
2018-12-16T04:38:06.862Z,23.23
2018-12-16T04:39:06.783Z,23.13
2018-12-16T04:40:06.767Z,22.83
2018-12-16T04:41:06.769Z,23.43
2018-12-16T04:42:06.735Z,22.83
2018-12-16T04:43:06.721Z,22.92
2018-12-16T04:44:07.315Z,22.83
2018-12-16T04:45:06.706Z,23.03
2018-12-16T04:46:06.704Z,23.03
2018-12-16T04:47:06.707Z,23.13
2018-12-16T04:48:06.661Z,23.03
2018-12-16T04:49:06.732Z,23.03
2018-12-16T04:50:06.685Z,23.13
2018-12-16T04:51:06.659Z,23.13
2018-12-16T04:52:06.679Z,23.43
2018-12-16T04:53:06.628Z,22.83
2018-12-16T04:54:06.599Z,22.92
2018-12-16T04:55:06.604Z,23.13
2018-12-16T04:56:06.593Z,23.13
2018-12-16T04:57:06.561Z,23.43
2018-12-16T04:58:06.553Z,23.23
2018-12-16T04:59:06.551Z,23.93
2018-12-16T05:00:06.537Z,23.83
2018-12-16T05:01:06.585Z,23.33
2018-12-16T05:02:06.523Z,23.63
2018-12-16T05:03:06.489Z,23.63
2018-12-16T05:04:06.493Z,23.93
2018-12-16T05:05:06.501Z,23.63
2018-12-16T05:06:06.466Z,23.53
2018-12-16T05:07:06.452Z,23.03
2018-12-16T05:08:06.501Z,23.54
2018-12-16T05:09:06.440Z,23.74
2018-12-16T05:10:06.412Z,23.64
2018-12-16T05:11:06.438Z,23.84
2018-12-16T05:12:06.406Z,23.64
2018-12-16T05:13:06.379Z,23.83
2018-12-16T05:14:06.365Z,23.63
2018-12-16T05:15:06.377Z,23.63
2018-12-16T05:16:06.352Z,23.93
2018-12-16T05:17:06.378Z,23.73
2018-12-16T05:18:06.331Z,23.03
2018-12-16T05:19:06.315Z,23.93
2018-12-16T05:20:06.315Z,23.43
2018-12-16T05:21:06.328Z,23.33
2018-12-16T05:22:06.303Z,23.53
2018-12-16T05:23:06.270Z,23.33
2018-12-16T05:24:06.297Z,23.43
2018-12-16T05:25:06.245Z,23.94
2018-12-16T05:26:06.240Z,23.24
2018-12-16T05:27:06.269Z,23.43
2018-12-16T05:28:06.215Z,23.63
2018-12-16T05:29:06.214Z,23.63
2018-12-16T05:30:06.190Z,23.33
2018-12-16T05:31:06.179Z,23.63
2018-12-16T05:32:06.190Z,23.93
2018-12-16T05:33:06.159Z,23.93
2018-12-16T05:34:06.156Z,23.83
2018-12-16T05:35:06.142Z,23.43
2018-12-16T05:36:06.125Z,24.03
2018-12-16T05:37:06.115Z,24.03
2018-12-16T05:38:06.169Z,23.63
2018-12-16T05:39:06.096Z,23.93
2018-12-16T05:40:06.072Z,23.03
2018-12-16T05:41:06.100Z,23.53
2018-12-16T05:42:06.084Z,23.03
2018-12-16T05:43:06.039Z,23.53
2018-12-16T05:44:06.048Z,24.13
2018-12-16T05:45:06.021Z,23.93
2018-12-16T05:46:06.031Z,24.03
2018-12-16T05:47:06.012Z,23.93
2018-12-16T05:48:05.988Z,23.83
2018-12-16T05:49:06.017Z,23.43
2018-12-16T05:50:05.962Z,23.73
2018-12-16T05:51:05.958Z,24.03
2018-12-16T05:52:06.010Z,23.83
2018-12-16T05:53:05.938Z,24.23
2018-12-16T05:54:05.920Z,23.83
2018-12-16T05:55:05.925Z,23.93
2018-12-16T05:56:05.898Z,23.83
2018-12-16T05:57:05.898Z,23.63
2018-12-16T05:58:05.889Z,24.03
2018-12-16T05:59:05.867Z,23.43
2018-12-16T06:00:05.907Z,23.93
2018-12-16T06:01:05.848Z,24.03
2018-12-16T06:02:05.855Z,23.63
2018-12-16T06:03:05.821Z,23.33
2018-12-16T06:04:05.803Z,24.03
2018-12-16T06:05:05.811Z,24.23
2018-12-16T06:06:05.786Z,23.73
2018-12-16T06:07:05.773Z,24.23
2018-12-16T06:08:05.886Z,24.04
2018-12-16T06:09:05.766Z,24.23
2018-12-16T06:10:05.746Z,24.03
2018-12-16T06:11:05.748Z,24.03
2018-12-16T06:12:05.713Z,23.54
2018-12-16T06:13:05.722Z,23.73
2018-12-16T06:14:05.711Z,24.03
2018-12-16T06:15:05.717Z,24.13
2018-12-16T06:16:05.678Z,23.63
2018-12-16T06:17:05.675Z,23.73
2018-12-16T06:18:05.666Z,24.04
2018-12-16T06:19:05.635Z,24.13
2018-12-16T06:20:05.627Z,23.73
2018-12-16T06:21:05.624Z,23.53
2018-12-16T06:22:05.611Z,23.74
2018-12-16T06:23:05.629Z,23.93
2018-12-16T06:24:05.572Z,24.13
2018-12-16T06:25:05.583Z,23.93
2018-12-16T06:26:05.553Z,23.63
2018-12-16T06:27:05.548Z,23.73
2018-12-16T06:28:05.543Z,23.63
2018-12-16T06:29:05.526Z,24.13
2018-12-16T06:30:05.520Z,23.73
2018-12-16T06:31:05.503Z,24.03
2018-12-16T06:32:05.496Z,24.33
2018-12-16T06:33:05.493Z,23.33
2018-12-16T06:34:05.462Z,23.93
2018-12-16T06:35:05.538Z,24.03
2018-12-16T06:36:05.479Z,23.73
2018-12-16T06:37:05.494Z,23.53
2018-12-16T06:38:05.595Z,24.03
2018-12-16T06:39:05.461Z,24.03
2018-12-16T06:40:05.415Z,23.73
2018-12-16T06:41:05.408Z,24.03
2018-12-16T06:42:05.377Z,24.23
2018-12-16T06:43:05.390Z,24.33
2018-12-16T06:44:05.356Z,23.83
2018-12-16T06:45:05.338Z,24.13
2018-12-16T06:46:05.338Z,24.03
2018-12-16T06:47:05.323Z,23.63
2018-12-16T06:48:05.321Z,23.63
2018-12-16T06:49:05.323Z,23.73
2018-12-16T06:50:05.295Z,24.23
2018-12-16T06:51:05.275Z,23.83
2018-12-16T06:52:05.267Z,23.83
2018-12-16T06:53:05.276Z,24.33
2018-12-16T06:54:05.244Z,24.13
2018-12-16T06:55:05.274Z,24.03
2018-12-16T06:56:06.751Z,24.43
2018-12-16T06:57:05.211Z,24.35
2018-12-16T06:58:05.199Z,24.13
2018-12-16T06:59:05.182Z,24.23
2018-12-16T07:00:05.256Z,24.54
2018-12-16T07:01:05.162Z,24.43
2018-12-16T07:02:05.143Z,24.23
2018-12-16T07:03:05.165Z,24.44
2018-12-16T07:04:05.126Z,24.55
2018-12-16T07:05:05.110Z,24.84
2018-12-16T07:06:05.106Z,24.44
2018-12-16T07:07:05.091Z,24.55
2018-12-16T07:08:05.097Z,24.65
2018-12-16T07:09:05.072Z,25.05
2018-12-16T07:10:05.084Z,24.95
2018-12-16T07:11:05.046Z,24.44
2018-12-16T07:12:05.041Z,24.44
2018-12-16T07:13:05.034Z,24.44
2018-12-16T07:14:05.035Z,24.65
2018-12-16T07:15:05.002Z,24.75
2018-12-16T07:16:05.016Z,24.55
2018-12-16T07:17:05.014Z,24.94
2018-12-16T07:18:05.007Z,24.84
2018-12-16T07:19:04.988Z,24.54
2018-12-16T07:20:04.963Z,24.84
2018-12-16T07:21:04.938Z,24.84
2018-12-16T07:22:04.950Z,24.74
2018-12-16T07:23:04.913Z,24.74
2018-12-16T07:24:09.211Z,24.84
2018-12-16T07:25:04.884Z,24.43
2018-12-16T07:26:04.887Z,24.33
2018-12-16T07:27:04.934Z,24.13
2018-12-16T07:28:04.895Z,24.43
2018-12-16T07:29:04.856Z,24.23
2018-12-16T07:30:04.841Z,24.33
2018-12-16T07:31:04.837Z,24.43
2018-12-16T07:32:04.822Z,24.43
2018-12-16T07:33:04.812Z,24.43
2018-12-16T07:34:04.826Z,24.84
2018-12-16T07:35:04.854Z,24.43
2018-12-16T07:36:04.775Z,24.63
2018-12-16T07:37:04.759Z,24.54
2018-12-16T07:38:04.795Z,24.54
2018-12-16T07:39:04.777Z,24.94
2018-12-16T07:40:04.765Z,24.54
2018-12-16T07:41:04.723Z,24.63
2018-12-16T07:42:04.706Z,24.43
2018-12-16T07:43:04.688Z,24.74
2018-12-16T07:44:04.727Z,24.43
2018-12-16T07:45:04.711Z,24.33
2018-12-16T07:46:04.680Z,24.54
2018-12-16T07:47:04.678Z,24.84
2018-12-16T07:48:04.622Z,24.54
2018-12-16T07:49:04.659Z,24.63
2018-12-16T07:50:04.641Z,24.94
2018-12-16T07:51:04.597Z,24.84
2018-12-16T07:52:04.582Z,24.54
2018-12-16T07:53:04.597Z,24.54
2018-12-16T07:54:04.605Z,24.94
2018-12-16T07:55:04.558Z,24.23
2018-12-16T07:56:04.557Z,24.43
2018-12-16T07:57:04.548Z,24.84
2018-12-16T07:58:04.536Z,24.84
2018-12-16T07:59:04.521Z,24.54
2018-12-16T08:00:04.488Z,24.84
2018-12-16T08:01:04.501Z,24.84
2018-12-16T08:02:04.481Z,24.84
2018-12-16T08:03:04.462Z,24.74
2018-12-16T08:04:04.502Z,24.84
2018-12-16T08:05:04.606Z,24.84
2018-12-16T08:06:04.436Z,24.84
2018-12-16T08:07:04.423Z,24.54
2018-12-16T08:08:04.430Z,24.54
2018-12-16T08:09:04.409Z,24.54
2018-12-16T08:10:04.398Z,24.74
2018-12-16T08:11:04.427Z,24.54
2018-12-16T08:12:04.354Z,24.84
2018-12-16T08:13:04.347Z,24.54
2018-12-16T08:14:04.361Z,24.84
2018-12-16T08:15:04.314Z,24.54
2018-12-16T08:16:04.302Z,24.54
2018-12-16T08:17:04.319Z,24.63
2018-12-16T08:18:04.279Z,24.63
2018-12-16T08:19:07.123Z,24.54
2018-12-16T08:20:04.257Z,25.04
2018-12-16T08:21:04.245Z,24.54
2018-12-16T08:22:04.254Z,24.74
2018-12-16T08:23:04.223Z,24.23
2018-12-16T08:24:04.235Z,24.13
2018-12-16T08:25:04.273Z,24.23
2018-12-16T08:26:04.191Z,24.33
2018-12-16T08:27:04.196Z,24.94
2018-12-16T08:28:04.199Z,24.33
2018-12-16T08:29:04.162Z,24.54
2018-12-16T08:30:04.179Z,24.84
2018-12-16T08:31:04.134Z,24.84
2018-12-16T08:32:04.120Z,24.74
2018-12-16T08:33:04.111Z,24.84
2018-12-16T08:34:04.106Z,24.54
2018-12-16T08:35:04.127Z,24.54
2018-12-16T08:36:04.144Z,24.94
2018-12-16T08:37:04.067Z,24.94
2018-12-16T08:38:04.081Z,25.04
2018-12-16T08:39:04.041Z,24.54
2018-12-16T08:40:04.045Z,24.65
2018-12-16T08:41:04.023Z,24.54
2018-12-16T08:42:04.015Z,24.74
2018-12-16T08:43:04.026Z,24.63
2018-12-16T08:44:03.999Z,24.74
2018-12-16T08:45:04.502Z,24.63
2018-12-16T08:46:03.985Z,24.94
2018-12-16T08:47:03.960Z,24.63
2018-12-16T08:48:03.951Z,24.54
2018-12-16T08:49:03.938Z,24.63
2018-12-16T08:50:03.960Z,24.54
2018-12-16T08:51:03.944Z,25.04
2018-12-16T08:52:03.925Z,24.54
2018-12-16T08:53:03.914Z,24.63
2018-12-16T08:54:03.883Z,24.63
2018-12-16T08:55:03.875Z,24.63
2018-12-16T08:56:03.852Z,24.63
2018-12-16T08:57:03.913Z,24.94
2018-12-16T08:58:03.832Z,24.74
2018-12-16T08:59:03.830Z,24.63
2018-12-16T09:00:03.941Z,24.94
2018-12-16T09:01:03.888Z,24.84
2018-12-16T09:02:03.799Z,24.74
2018-12-16T09:03:03.793Z,24.94
2018-12-16T09:04:03.780Z,24.63
2018-12-16T09:05:03.753Z,23.73
2018-12-16T09:06:03.754Z,24.13
2018-12-16T09:07:03.735Z,24.84
2018-12-16T09:08:03.831Z,24.74
2018-12-16T09:09:03.732Z,24.84
2018-12-16T09:10:03.705Z,24.63
2018-12-16T09:11:03.688Z,24.63
2018-12-16T09:12:03.678Z,24.84
2018-12-16T09:13:03.666Z,24.54
2018-12-16T09:14:03.650Z,24.54
2018-12-16T09:15:03.657Z,24.54
2018-12-16T09:16:03.715Z,24.94
2018-12-16T09:17:03.616Z,24.54
2018-12-16T09:18:03.612Z,24.54
2018-12-16T09:19:03.605Z,24.84
2018-12-16T09:20:03.655Z,24.54
2018-12-16T09:21:03.613Z,24.84
2018-12-16T09:22:03.589Z,24.63
2018-12-16T09:23:03.576Z,24.94
2018-12-16T09:24:03.551Z,24.54
2018-12-16T09:25:03.536Z,24.94
2018-12-16T09:26:03.517Z,24.63
2018-12-16T09:27:03.510Z,24.94
2018-12-16T09:28:03.493Z,24.54
2018-12-16T09:29:03.478Z,24.54
2018-12-16T09:30:03.468Z,24.63
2018-12-16T09:31:03.491Z,24.54
2018-12-16T09:32:03.463Z,24.63
2018-12-16T09:33:03.436Z,24.94
2018-12-16T09:34:03.419Z,24.63
2018-12-16T09:35:03.411Z,24.94
2018-12-16T09:36:03.404Z,24.63
2018-12-16T09:37:03.387Z,24.74
2018-12-16T09:38:03.480Z,24.84
2018-12-16T09:39:03.406Z,24.94
2018-12-16T09:40:03.352Z,24.63
2018-12-16T09:41:03.441Z,24.63
2018-12-16T09:42:03.330Z,24.63
2018-12-16T09:43:03.317Z,24.63
2018-12-16T09:44:03.316Z,24.63
2018-12-16T09:45:03.333Z,24.54
2018-12-16T09:46:03.341Z,24.63
2018-12-16T09:47:03.271Z,24.74
2018-12-16T09:48:03.272Z,24.63
2018-12-16T09:49:03.250Z,24.63
2018-12-16T09:50:03.234Z,24.63
2018-12-16T09:51:03.312Z,23.73
2018-12-16T09:52:03.213Z,24.74
2018-12-16T09:53:03.203Z,24.63
2018-12-16T09:54:03.296Z,24.63
2018-12-16T09:55:03.179Z,24.74
2018-12-16T09:56:03.191Z,24.63
2018-12-16T09:57:03.167Z,24.84
2018-12-16T09:58:03.149Z,24.62
2018-12-16T09:59:03.133Z,24.82
2018-12-16T10:00:03.126Z,24.84
2018-12-16T10:01:03.123Z,24.62
2018-12-16T10:02:03.124Z,24.93
2018-12-16T10:03:03.101Z,24.93
2018-12-16T10:04:03.115Z,24.82
2018-12-16T10:05:03.102Z,24.62
2018-12-16T10:06:03.110Z,24.62
2018-12-16T10:07:03.051Z,24.82
2018-12-16T10:08:03.097Z,24.73
2018-12-16T10:09:03.033Z,24.42
2018-12-16T10:10:03.031Z,24.62
2018-12-16T10:11:02.997Z,24.42
2018-12-16T10:12:03.012Z,24.82
2018-12-16T10:13:02.982Z,24.93
2018-12-16T10:14:02.963Z,24.94
2018-12-16T10:15:02.963Z,24.73
2018-12-16T10:16:02.947Z,24.93
2018-12-16T10:17:02.948Z,24.62
2018-12-16T10:18:02.983Z,24.74
2018-12-16T10:19:02.946Z,24.73
2018-12-16T10:20:02.897Z,24.84
2018-12-16T10:21:02.914Z,24.63
2018-12-16T10:22:02.892Z,24.94
2018-12-16T10:23:02.887Z,24.84
2018-12-16T10:24:02.865Z,24.82
2018-12-16T10:25:02.879Z,24.62
2018-12-16T10:26:02.893Z,24.74
2018-12-16T10:27:02.895Z,24.62
2018-12-16T10:28:02.815Z,24.62
2018-12-16T10:29:02.809Z,24.12
2018-12-16T10:30:02.790Z,24.82
2018-12-16T10:31:02.863Z,24.73
2018-12-16T10:32:02.779Z,24.73
2018-12-16T10:33:02.790Z,24.33
2018-12-16T10:34:02.765Z,24.52
2018-12-16T10:35:02.742Z,24.73
2018-12-16T10:36:02.718Z,24.84
2018-12-16T10:37:02.727Z,24.62
2018-12-16T10:38:02.756Z,24.62
2018-12-16T10:39:02.724Z,24.93
2018-12-16T10:40:02.676Z,24.73
2018-12-16T10:41:02.677Z,24.73
2018-12-16T10:42:02.720Z,24.02
2018-12-16T10:43:02.646Z,24.52
2018-12-16T10:44:02.628Z,24.42
2018-12-16T10:45:02.628Z,23.92
2018-12-16T10:46:02.616Z,24.42
2018-12-16T10:47:02.622Z,24.82
2018-12-16T10:48:02.692Z,24.73
2018-12-16T10:49:04.890Z,24.02
2018-12-16T10:50:02.555Z,24.32
2018-12-16T10:51:02.559Z,24.42
2018-12-16T10:52:02.606Z,24.32
2018-12-16T10:53:02.522Z,23.92
2018-12-16T10:54:02.511Z,24.73
2018-12-16T10:55:02.502Z,24.12
2018-12-16T10:56:02.503Z,24.42
2018-12-16T10:57:02.481Z,24.12
2018-12-16T10:58:02.485Z,24.32
2018-12-16T10:59:02.495Z,24.32
2018-12-16T11:00:02.472Z,24.22
2018-12-16T11:01:02.436Z,24.52
2018-12-16T11:02:02.435Z,24.73
2018-12-16T11:03:02.432Z,24.42
2018-12-16T11:04:02.407Z,24.42
2018-12-16T11:05:02.422Z,24.52
2018-12-16T11:06:02.376Z,24.32
2018-12-16T11:07:02.367Z,24.54
2018-12-16T11:08:02.523Z,24.82
2018-12-16T11:09:02.345Z,24.84
2018-12-16T11:10:02.330Z,24.22
2018-12-16T11:11:02.349Z,24.54
2018-12-16T11:12:02.318Z,24.73
2018-12-16T11:13:02.333Z,24.23
2018-12-16T11:14:02.302Z,24.13
2018-12-16T11:15:02.288Z,24.82
2018-12-16T11:16:02.422Z,24.32
2018-12-16T11:17:02.285Z,24.32
2018-12-16T11:18:02.256Z,24.02
2018-12-16T11:19:02.284Z,24.32
2018-12-16T11:20:02.234Z,24.62
2018-12-16T11:21:02.235Z,24.33
2018-12-16T11:22:02.194Z,24.62
2018-12-16T11:23:02.194Z,24.22
2018-12-16T11:24:02.182Z,24.22
2018-12-16T11:25:05.712Z,24.62
2018-12-16T11:26:02.155Z,24.74
2018-12-16T11:27:02.141Z,24.74
2018-12-16T11:28:02.143Z,24.73
2018-12-16T11:29:02.119Z,24.43
2018-12-16T11:30:02.111Z,24.93
2018-12-16T11:31:02.106Z,24.32
2018-12-16T11:32:02.097Z,24.23
2018-12-16T11:33:02.100Z,24.42
2018-12-16T11:34:02.113Z,24.73
2018-12-16T11:35:02.120Z,24.42
2018-12-16T11:36:02.150Z,24.23
2018-12-16T11:37:02.044Z,24.32
2018-12-16T11:38:02.130Z,24.52
2018-12-16T11:39:02.035Z,24.32
2018-12-16T11:40:02.007Z,24.22
2018-12-16T11:41:02.034Z,24.22
2018-12-16T11:42:02.001Z,24.73
2018-12-16T11:43:01.972Z,24.22
2018-12-16T11:44:01.963Z,24.32
2018-12-16T11:45:01.966Z,24.62
2018-12-16T11:46:01.949Z,24.32
2018-12-16T11:47:01.915Z,24.42
2018-12-16T11:48:01.956Z,24.12
2018-12-16T11:49:01.917Z,24.71
2018-12-16T11:50:01.907Z,24.32
2018-12-16T11:51:01.868Z,24.42
2018-12-16T11:52:01.875Z,24.32
2018-12-16T11:53:01.855Z,24.73
2018-12-16T11:54:01.862Z,24.32
2018-12-16T11:55:01.837Z,24.62
2018-12-16T11:56:01.827Z,24.02
2018-12-16T11:57:01.803Z,24.61
2018-12-16T11:58:01.836Z,24.42
2018-12-16T11:59:01.791Z,24.22
2018-12-16T12:00:01.765Z,24.22
2018-12-16T12:01:01.762Z,25.02
2018-12-16T12:02:01.785Z,25.02
2018-12-16T12:03:01.731Z,24.93
2018-12-16T12:04:01.733Z,24.93
2018-12-16T12:05:01.709Z,24.93
2018-12-16T12:06:01.697Z,24.73
2018-12-16T12:07:01.726Z,24.93
2018-12-16T12:08:01.755Z,24.94
2018-12-16T12:09:01.679Z,24.63
2018-12-16T12:10:01.654Z,24.73
2018-12-16T12:11:01.641Z,24.62
2018-12-16T12:12:01.631Z,24.73
2018-12-16T12:13:01.632Z,24.93
2018-12-16T12:14:01.659Z,25.63
2018-12-16T12:15:01.595Z,24.52
2018-12-16T12:16:01.593Z,24.62
2018-12-16T12:17:01.613Z,25.02
2018-12-16T12:18:01.575Z,25.33
2018-12-16T12:19:01.562Z,25.33
2018-12-16T12:20:01.603Z,25.53
2018-12-16T12:21:01.536Z,24.93
2018-12-16T12:22:04.457Z,24.52
2018-12-16T12:23:01.524Z,24.93
2018-12-16T12:24:01.520Z,24.73
2018-12-16T12:25:01.490Z,24.93
2018-12-16T12:26:01.548Z,24.42
2018-12-16T12:27:01.503Z,24.93
2018-12-16T12:28:01.469Z,25.02
2018-12-16T12:29:01.461Z,24.93
2018-12-16T12:30:01.453Z,24.62
2018-12-16T12:31:01.424Z,25.53
2018-12-16T12:32:01.425Z,25.23
2018-12-16T12:33:01.452Z,25.13
2018-12-16T12:34:01.382Z,25.13
2018-12-16T12:35:01.397Z,25.02
2018-12-16T12:36:01.364Z,25.53
2018-12-16T12:37:01.350Z,25.23
2018-12-16T12:38:01.396Z,25.73
2018-12-16T12:39:01.329Z,25.33
2018-12-16T12:40:01.327Z,25.33
2018-12-16T12:41:01.310Z,25.33
2018-12-16T12:42:01.337Z,25.33
2018-12-16T12:43:01.286Z,25.33
2018-12-16T12:44:01.283Z,25.33
2018-12-16T12:45:01.278Z,25.53
2018-12-16T12:46:01.262Z,25.33
2018-12-16T12:47:01.234Z,25.73
2018-12-16T12:48:01.223Z,25.33
2018-12-16T12:49:01.218Z,24.62
2018-12-16T12:50:01.294Z,25.32
2018-12-16T12:51:01.189Z,25.32
2018-12-16T12:52:01.197Z,25.33